Time;durP1;ratioP1;P1;durP2;ratioP2;P2;SDS_P1;SDS_P2;PMS_P1;PMS_P2;Temp;Humidity;BMP_temperature;BMP_pressure;BME280_temperature;BME280_humidity;BME280_pressure;Samples;Min_cycle;Max_cycle;Signal;HPM_P1;HPM_P2
2021/12/10 00:00:30;;;;;;;22.02;8.50;;;;;;;-142.75;100.00;76914.78;5071349;28;20069;-67
2021/12/10 00:02:59;;;;;;;17.40;8.17;;;;;;;-142.75;100.00;76920.69;5071738;28;20021;-68
2021/12/10 00:05:32;;;;;;;18.97;8.27;;;;;;;-142.75;100.00;76908.88;5071440;28;20074;-67
2021/12/10 00:07:58;;;;;;;23.50;9.13;;;;;;;-142.75;100.00;76912.81;5071862;28;20490;-67
2021/12/10 00:10:31;;;;;;;24.15;10.25;;;;;;;-142.75;100.00;76889.19;5070806;28;20077;-67
2021/12/10 00:12:57;;;;;;;29.00;10.80;;;;;;;-142.75;100.00;76895.09;5071535;28;20095;-67
2021/12/10 00:15:26;;;;;;;28.08;11.25;;;;;;;-142.75;100.00;76885.25;5071482;28;20111;-68
2021/12/10 00:17:53;;;;;;;23.33;10.50;;;;;;;-142.75;100.00;76893.13;5071367;28;20108;-68
2021/12/10 00:20:23;;;;;;;25.97;11.37;;;;;;;-142.75;100.00;76877.38;5070943;28;20504;-68
2021/12/10 00:22:56;;;;;;;21.90;10.67;;;;;;;-142.75;100.00;76895.09;5071695;28;20025;-67
2021/12/10 00:25:25;;;;;;;27.87;12.27;;;;;;;-142.75;100.00;76879.34;5052616;28;20027;-66
2021/12/10 00:27:54;;;;;;;22.17;11.53;;;;;;;-142.75;100.00;76873.44;5071623;28;20055;-68
2021/12/10 00:30:27;;;;;;;23.50;11.57;;;;;;;-142.75;100.00;76865.56;5070788;28;20020;-68
2021/12/10 00:33:14;;;;;;;23.70;12.10;;;;;;;-142.75;100.00;76857.69;5071184;28;20017;-68
2021/12/10 00:35:41;;;;;;;27.90;12.05;;;;;;;-142.75;100.00;76871.47;5071010;28;20025;-67
2021/12/10 00:38:08;;;;;;;24.27;11.40;;;;;;;-142.75;100.00;76857.69;5071029;28;20064;-68
2021/12/10 00:40:34;;;;;;;27.90;11.17;;;;;;;-142.75;100.00;76859.66;5070363;28;20024;-67
2021/12/10 00:43:00;;;;;;;26.63;10.57;;;;;;;-142.75;100.00;76857.69;5070958;28;20055;-67
2021/12/10 00:45:26;;;;;;;23.20;11.52;;;;;;;-142.75;100.00;76841.94;5069890;28;20052;-67
2021/12/10 00:47:52;;;;;;;25.65;11.70;;;;;;;-142.75;100.00;76830.13;5053061;28;20432;-68
2021/12/10 00:50:25;;;;;;;19.10;10.25;;;;;;;-142.75;100.00;76830.13;5070481;28;20025;-68
2021/12/10 00:52:53;;;;;;;24.23;10.53;;;;;;;-142.75;100.00;76820.28;5071078;28;20020;-68
2021/12/10 00:55:19;;;;;;;25.23;10.90;;;;;;;-142.75;100.00;76830.13;5071053;28;20474;-67
2021/12/10 00:57:45;;;;;;;;;;;;;;;-142.75;100.00;76830.13;5071136;28;20028;-67
2021/12/10 01:00:15;;;;;;;20.70;10.93;;;;;;;-142.75;100.00;76828.16;5069950;28;20734;-68
2021/12/10 01:02:41;;;;;;;24.17;11.53;;;;;;;-142.75;100.00;76818.31;5070503;28;20066;-68
2021/12/10 01:05:08;;;;;;;20.15;10.70;;;;;;;-142.75;100.00;76814.38;5052565;28;20020;-67
2021/12/10 01:07:35;;;;;;;22.27;12.33;;;;;;;-142.75;100.00;76808.50;5070411;28;20584;-67
2021/12/10 01:10:07;;;;;;;22.80;12.10;;;;;;;-142.75;100.00;76800.63;5051790;28;20028;-67
2021/12/10 01:12:39;;;;;;;22.57;12.07;;;;;;;-142.75;100.00;76806.50;5070256;28;20615;-68
2021/12/10 01:15:40;;;;;;;25.63;12.67;;;;;;;-142.75;100.00;76810.44;5070291;28;20050;-68
2021/12/10 01:24:14;;;;;;;22.70;10.80;;;;;;;-142.75;100.00;76806.50;5008139;28;20055;-66
2021/12/10 01:29:19;;;;;;;19.23;10.73;;;;;;;-142.75;100.00;76775.03;5045276;28;20028;-66
2021/12/10 01:31:45;;;;;;;24.47;11.43;;;;;;;-142.75;100.00;76777.00;5069355;28;20147;-66
2021/12/10 01:34:11;;;;;;;;;;;;;;;-142.75;100.00;76769.13;5070257;28;20021;-65
2021/12/10 01:36:37;;;;;;;28.20;11.63;;;;;;;-142.75;100.00;76771.09;5069737;28;19912;-67
2021/12/10 01:39:04;;;;;;;;;;;;;;;-142.75;100.00;76757.31;5052664;28;20066;-66
2021/12/10 01:41:34;;;;;;;19.67;10.03;;;;;;;-142.75;100.00;76759.28;5069120;28;19943;-67
2021/12/10 01:44:04;;;;;;;26.47;9.80;;;;;;;-142.75;100.00;76784.88;5069750;28;20032;-66
2021/12/10 01:46:37;;;;;;;20.00;9.93;;;;;;;-142.75;100.00;76769.13;5068502;28;20082;-68
2021/12/10 01:49:05;;;;;;;18.77;9.83;;;;;;;-142.75;100.00;76771.09;5067274;28;20058;-69
2021/12/10 01:51:33;;;;;;;17.67;8.80;;;;;;;-142.75;100.00;76749.44;5069983;28;20040;-68
2021/12/10 01:54:05;;;;;;;16.27;8.90;;;;;;;-142.75;100.00;76743.53;5052948;28;20402;-68
2021/12/10 01:56:35;;;;;;;23.87;9.50;;;;;;;-142.75;100.00;76747.47;5069757;28;20027;-66
2021/12/10 01:59:02;;;;;;;16.67;9.17;;;;;;;-142.75;100.00;76755.34;5069630;28;20060;-67
2021/12/10 02:01:33;;;;;;;17.07;8.93;;;;;;;-142.75;100.00;76747.47;5067582;28;20058;-67
2021/12/10 02:04:01;;;;;;;18.97;9.20;;;;;;;-142.75;100.00;76757.31;5069454;28;20028;-68
2021/12/10 02:06:27;;;;;;;17.47;8.23;;;;;;;-142.75;100.00;76745.50;5069625;28;20021;-68
2021/12/10 02:08:52;;;;;;;24.15;8.43;;;;;;;-142.75;100.00;76731.72;5070325;28;20040;-67
2021/12/10 02:11:18;;;;;;;20.25;8.57;;;;;;;-142.75;100.00;76727.78;5067608;28;20036;-68
2021/12/10 02:13:45;;;;;;;17.10;7.80;;;;;;;-142.75;100.00;76727.78;5069370;28;20021;-67
2021/12/10 02:16:13;;;;;;;17.73;7.70;;;;;;;-142.75;100.00;76721.88;5069323;28;20029;-67
2021/12/10 02:18:38;;;;;;;16.80;7.37;;;;;;;-142.75;100.00;76727.78;5069376;28;20020;-67
2021/12/10 02:21:04;;;;;;;14.50;7.35;;;;;;;-142.75;100.00;76712.03;5068478;28;20507;-67
2021/12/10 02:23:35;;;;;;;16.30;7.23;;;;;;;-142.75;100.00;76704.16;5069243;28;20099;-67
2021/12/10 02:26:02;;;;;;;17.87;7.70;;;;;;;-142.75;100.00;76708.09;5069249;28;20504;-68
2021/12/10 02:28:28;;;;;;;17.27;6.73;;;;;;;-142.75;100.00;76692.34;5051054;28;20071;-68
2021/12/10 02:30:54;;;;;;;13.15;6.47;;;;;;;-142.75;100.00;76690.38;5068545;28;20107;-66
2021/12/10 02:33:20;;;;;;;11.60;6.47;;;;;;;-142.75;100.00;76686.44;5069406;28;20024;-67
2021/12/10 02:35:46;;;;;;;14.82;6.28;;;;;;;-142.75;100.00;76680.53;5068889;28;20066;-67
2021/12/10 02:38:11;;;;;;;15.02;5.85;;;;;;;-142.75;100.00;76660.84;5069110;28;20031;-68
2021/12/10 02:40:38;;;;;;;12.90;5.65;;;;;;;-142.75;100.00;76651.00;5050413;28;20539;-67
2021/12/10 02:43:08;;;;;;;12.07;5.80;;;;;;;-142.75;100.00;76647.06;5051082;28;20028;-67
2021/12/10 02:45:35;;;;;;;13.77;6.03;;;;;;;-142.75;100.00;76639.19;5068799;28;20410;-65
2021/12/10 02:48:00;;;;;;;13.40;5.83;;;;;;;-142.75;100.00;76639.19;5071376;28;20024;-65
2021/12/10 02:50:29;;;;;;;11.20;5.40;;;;;;;-142.75;100.00;76633.28;5072258;28;20075;-67
2021/12/10 02:52:56;;;;;;;15.63;5.60;;;;;;;-142.75;100.00;76637.22;5073068;28;20024;-67
2021/12/10 02:55:22;;;;;;;13.50;5.27;;;;;;;-142.75;100.00;76623.44;5055210;28;20046;-67
2021/12/10 02:57:52;;;;;;;12.57;5.90;;;;;;;-142.75;100.00;76629.34;5073307;28;20024;-67
2021/12/10 03:00:24;;;;;;;11.90;5.07;;;;;;;-142.75;100.00;76613.59;5072515;28;20025;-68
2021/12/10 03:02:49;;;;;;;13.93;5.40;;;;;;;-142.75;100.00;76615.56;5073119;28;20073;-65
2021/12/10 03:05:14;;;;;;;14.57;4.95;;;;;;;-142.75;100.00;76607.69;5072634;28;20115;-65
2021/12/10 03:07:41;;;;;;;16.17;5.25;;;;;;;-142.75;100.00;76603.75;5072906;28;20017;-67
2021/12/10 03:10:11;;;;;;;17.13;6.30;;;;;;;-142.75;100.00;76609.66;5072005;28;20039;-67
2021/12/10 03:12:37;;;;;;;15.13;5.47;;;;;;;-142.75;100.00;76617.53;5071624;28;20066;-64
2021/12/10 03:15:05;;;;;;;12.48;5.30;;;;;;;-142.75;100.00;76619.50;5072657;28;20036;-64
2021/12/10 03:17:32;;;;;;;12.23;5.40;;;;;;;-142.75;100.00;76625.41;5072452;28;20067;-65
2021/12/10 03:20:00;;;;;;;14.87;5.57;;;;;;;-142.75;100.00;76633.28;5053840;28;20040;-64
2021/12/10 03:22:27;;;;;;;12.53;5.27;;;;;;;-142.75;100.00;76641.16;5072504;28;20066;-64
2021/12/10 03:24:53;;;;;;;13.13;6.03;;;;;;;-142.75;100.00;76645.09;5072533;28;20409;-64
2021/12/10 03:27:22;;;;;;;15.97;5.57;;;;;;;-142.75;100.00;76625.41;5072726;28;20032;-64
2021/12/10 03:29:48;;;;;;;18.53;6.03;;;;;;;-142.75;100.00;76633.28;5071559;28;20020;-64
2021/12/10 03:32:22;;;;;;;15.93;5.93;;;;;;;-142.75;100.00;76629.34;5072051;28;20027;-64
2021/12/10 03:34:48;;;;;;;11.73;5.17;;;;;;;-142.75;100.00;76613.59;5071530;28;20029;-65
2021/12/10 03:37:17;;;;;;;12.40;5.10;;;;;;;-142.75;100.00;76613.59;5071070;28;20031;-67
2021/12/10 03:39:43;;;;;;;16.93;4.70;;;;;;;-142.75;100.00;76619.50;5070314;28;20060;-67
2021/12/10 03:42:08;;;;;;;11.60;4.68;;;;;;;-142.75;100.00;76611.63;5053293;28;20075;-67
2021/12/10 03:44:35;;;;;;;19.10;4.57;;;;;;;-142.75;100.00;76601.78;5070831;28;20600;-67
2021/12/10 03:47:01;;;;;;;13.80;4.83;;;;;;;-142.75;100.00;76593.91;5071024;28;20036;-67
2021/12/10 03:49:27;;;;;;;13.00;4.83;;;;;;;-142.75;100.00;76584.06;5070999;28;20042;-64
2021/12/10 03:51:52;;;;;;;13.60;4.45;;;;;;;-142.75;100.00;76578.16;5070276;28;20545;-65
2021/12/10 03:54:18;;;;;;;13.13;4.50;;;;;;;-142.75;100.00;76591.94;5070941;28;20503;-65
2021/12/10 03:56:47;;;;;;;9.63;4.80;;;;;;;-142.75;100.00;76580.13;5052868;28;20021;-65
2021/12/10 03:59:15;;;;;;;15.23;5.97;;;;;;;-142.75;100.00;76574.22;5069237;28;20495;-65
2021/12/10 04:01:44;;;;;;;15.50;4.73;;;;;;;-142.75;100.00;76582.09;5069839;28;20052;-65
2021/12/10 04:04:22;;;;;;;18.93;5.43;;;;;;;-142.75;100.00;76562.41;5070459;28;20064;-65
2021/12/10 04:06:47;;;;;;;15.27;4.70;;;;;;;-142.75;100.00;76568.31;5068686;28;20029;-64
2021/12/10 04:09:14;;;;;;;10.60;3.70;;;;;;;-142.75;100.00;76550.59;5070578;28;20378;-65
2021/12/10 04:11:40;;;;;;;10.83;4.57;;;;;;;-142.75;100.00;76564.38;5067951;28;20027;-65
2021/12/10 04:14:06;;;;;;;10.30;4.20;;;;;;;-142.75;100.00;76546.66;5070366;28;20051;-65
2021/12/10 04:16:32;;;;;;;11.85;4.55;;;;;;;-142.75;100.00;76546.66;5070488;28;20051;-65
2021/12/10 04:18:59;;;;;;;;;;;;;;;-142.75;100.00;76548.63;5070658;28;20016;-64
2021/12/10 04:21:24;;;;;;;12.03;4.33;;;;;;;-142.75;100.00;76546.66;5069571;28;20388;-64
2021/12/10 04:23:50;;;;;;;10.88;4.57;;;;;;;-142.75;100.00;76548.63;5070492;28;20024;-64
2021/12/10 04:26:19;;;;;;;8.68;3.67;;;;;;;-142.75;100.00;76538.78;5070210;28;20496;-67
2021/12/10 04:28:45;;;;;;;12.70;3.77;;;;;;;-142.75;100.00;76530.91;5070286;28;20454;-67
2021/12/10 04:31:11;;;;;;;9.68;3.67;;;;;;;-142.75;100.00;76530.91;5069525;28;20428;-67
2021/12/10 04:33:37;;;;;;;11.95;3.90;;;;;;;-142.75;100.00;76523.06;5032065;28;1056551;-66
2021/12/10 04:36:04;;;;;;;12.70;4.00;;;;;;;-142.75;100.00;76527.00;5069647;28;20409;-65
2021/12/10 04:38:33;;;;;;;9.63;4.40;;;;;;;-142.75;100.00;76519.13;5071115;28;20537;-65
2021/12/10 04:41:01;;;;;;;11.70;3.70;;;;;;;-142.75;100.00;76519.13;5070272;28;20425;-65
2021/12/10 04:43:29;;;;;;;10.57;3.10;;;;;;;-142.75;100.00;76509.28;5071084;28;20021;-65
2021/12/10 04:45:57;;;;;;;11.47;3.30;;;;;;;-142.75;100.00;76507.31;5070857;28;20033;-66
2021/12/10 04:48:23;;;;;;;7.80;3.20;;;;;;;-142.75;100.00;76507.31;5071003;28;20028;-65
2021/12/10 04:50:49;;;;;;;13.53;3.20;;;;;;;-142.75;100.00;76499.44;5070916;28;20032;-64
2021/12/10 04:53:15;;;;;;;8.57;2.75;;;;;;;-142.75;100.00;76503.38;5070975;28;20068;-65
2021/12/10 04:55:41;;;;;;;17.35;3.55;;;;;;;-142.75;100.00;76505.34;5052969;28;20070;-65
2021/12/10 04:58:06;;;;;;;10.75;3.20;;;;;;;-142.75;100.00;76497.47;5070759;28;20032;-65
2021/12/10 05:00:37;;;;;;;17.65;3.13;;;;;;;-142.75;100.00;76487.63;5070051;28;20047;-65
2021/12/10 05:03:05;;;;;;;8.33;2.97;;;;;;;-142.75;100.00;76491.56;5070565;28;20032;-65
2021/12/10 05:05:31;;;;;;;7.43;3.00;;;;;;;-142.75;100.00;76467.94;5070446;28;20028;-65
2021/12/10 05:07:56;;;;;;;11.10;2.80;;;;;;;-142.75;100.00;76473.84;5052718;28;20387;-64
2021/12/10 05:10:22;;;;;;;7.80;2.88;;;;;;;-142.75;100.00;76475.81;5069635;28;20074;-65
2021/12/10 05:12:47;;;;;;;6.10;2.78;;;;;;;-142.75;100.00;76473.84;5069637;28;20046;-64
2021/12/10 05:15:18;;;;;;;8.50;2.90;;;;;;;-142.75;100.00;76464.00;5070329;28;20020;-65
2021/12/10 05:17:44;;;;;;;5.70;2.40;;;;;;;-142.75;100.00;76462.03;5070383;28;20036;-65
2021/12/10 05:20:17;;;;;;;6.60;2.90;;;;;;;-142.75;100.00;76462.03;5052124;28;20440;-65
2021/12/10 05:22:46;;;;;;;9.13;2.30;;;;;;;-142.75;100.00;76464.00;5070389;28;20323;-65
2021/12/10 05:25:11;;;;;;;8.17;3.30;;;;;;;-142.75;100.00;76458.09;5070148;28;20474;-65
2021/12/10 05:27:38;;;;;;;8.35;2.35;;;;;;;-142.75;100.00;76460.06;5052406;28;20470;-67
2021/12/10 05:30:07;;;;;;;8.13;2.43;;;;;;;-142.75;100.00;76452.19;5070203;28;20035;-64
2021/12/10 05:32:33;;;;;;;8.30;2.83;;;;;;;-142.75;100.00;76452.19;5070485;28;20028;-64
2021/12/10 05:34:59;;;;;;;7.20;2.40;;;;;;;-142.75;100.00;76446.28;5062120;22;20099;-67
2021/12/10 05:37:25;;;;;;;8.83;3.40;;;;;;;-142.75;100.00;76456.13;4987935;28;20030;-67
2021/12/10 05:39:50;;;;;;;11.90;3.60;;;;;;;-142.75;100.00;76458.09;4987590;28;20034;-67
2021/12/10 05:42:16;;;;;;;10.93;3.10;;;;;;;-142.75;100.00;76452.19;5001688;28;20151;-68
2021/12/10 05:44:42;;;;;;;8.40;2.53;;;;;;;-142.75;100.00;76444.31;5007378;28;20026;-68
2021/12/10 05:47:07;;;;;;;8.10;2.47;;;;;;;-142.75;100.00;76448.25;5007351;28;20033;-67
2021/12/10 05:49:33;;;;;;;9.75;2.28;;;;;;;-142.75;100.00;76434.47;5006260;28;20143;-68
2021/12/10 05:51:59;;;;;;;8.57;3.00;;;;;;;-142.75;100.00;76432.50;5006696;28;20483;-67
2021/12/10 05:54:24;;;;;;;8.57;2.70;;;;;;;-142.75;100.00;76422.66;5005395;28;20028;-65
2021/12/10 05:56:50;;;;;;;10.43;2.40;;;;;;;-142.75;100.00;76422.66;5004416;28;20498;-68
2021/12/10 05:59:15;;;;;;;7.35;2.45;;;;;;;-142.75;100.00;76424.63;4995564;28;20034;-68
2021/12/10 06:01:41;;;;;;;13.00;2.35;;;;;;;-142.75;100.00;76422.66;4986735;28;20037;-68
2021/12/10 06:04:07;;;;;;;9.30;2.38;;;;;;;-142.75;100.00;76424.63;4987498;28;20029;-67
2021/12/10 06:06:33;;;;;;;;;;;;;;;-142.75;100.00;76416.75;4987930;28;20388;-67
2021/12/10 06:09:04;;;;;;;6.93;1.97;;;;;;;-142.75;100.00;76416.75;4987481;28;19917;-67
2021/12/10 06:11:29;;;;;;;4.63;1.60;;;;;;;-142.75;100.00;76430.53;4999264;28;20029;-66
2021/12/10 06:13:56;;;;;;;10.02;2.35;;;;;;;-142.75;100.00;76432.50;5005742;28;20078;-68
2021/12/10 06:16:21;;;;;;;10.47;2.73;;;;;;;-142.75;100.00;76438.41;5007041;28;20025;-67
2021/12/10 06:18:47;;;;;;;7.20;2.15;;;;;;;-142.75;100.00;76440.38;5005728;28;20049;-68
2021/12/10 06:21:12;;;;;;;7.93;2.13;;;;;;;-142.75;100.00;76444.31;4996167;28;20160;-67
2021/12/10 06:23:38;;;;;;;8.25;2.40;;;;;;;-142.75;100.00;76444.31;4994480;28;20112;-68
2021/12/10 06:26:04;;;;;;;8.23;2.10;;;;;;;-142.75;100.00;76438.41;5006701;28;20030;-67
2021/12/10 06:28:31;;;;;;;7.13;2.30;;;;;;;-142.75;100.00;76448.25;5006845;28;20026;-65
2021/12/10 06:30:56;;;;;;;8.17;2.30;;;;;;;-142.75;100.00;76452.19;5005876;28;20041;-68
2021/12/10 06:33:27;;;;;;;12.93;2.50;;;;;;;-142.75;100.00;76444.31;5007116;28;20071;-67
2021/12/10 06:35:54;;;;;;;12.87;2.57;;;;;;;-142.75;100.00;76448.25;5006536;28;20028;-66
2021/12/10 06:38:21;;;;;;;12.90;2.47;;;;;;;-142.75;100.00;76448.25;5005604;28;20025;-67
2021/12/10 06:40:48;;;;;;;7.57;2.87;;;;;;;-142.75;100.00;76452.19;4999742;28;20026;-68
2021/12/10 06:43:14;;;;;;;9.43;2.73;;;;;;;-142.75;100.00;76452.19;4985796;28;20034;-68
2021/12/10 06:45:41;;;;;;;11.00;3.60;;;;;;;-142.75;100.00;76454.16;5004277;28;20026;-67
2021/12/10 06:48:08;;;;;;;8.37;2.53;;;;;;;-142.75;100.00;76454.16;5006460;28;20026;-68
2021/12/10 06:50:41;;;;;;;10.63;2.70;;;;;;;-142.75;100.00;76458.09;5005813;28;20022;-67
2021/12/10 06:53:06;;;;;;;13.97;3.50;;;;;;;-142.75;100.00;76454.16;5006496;28;20112;-68
2021/12/10 06:55:33;;;;;;;8.80;2.47;;;;;;;-142.75;100.00;76454.16;5006358;28;20097;-67
2021/12/10 06:57:58;;;;;;;;;;;;;;;-142.75;100.00;76454.16;5006850;28;20079;-67
2021/12/10 07:00:47;;;;;;;11.50;2.80;;;;;;;-142.75;100.00;76454.16;5003895;28;19917;-66
2021/12/10 07:03:17;;;;;;;8.83;2.07;;;;;;;-142.75;100.00;76450.22;5004216;28;20041;-68
2021/12/10 07:05:44;;;;;;;9.67;2.20;;;;;;;-142.75;100.00;76456.13;5006129;28;20034;-67
2021/12/10 07:08:09;;;;;;;;;;;;;;;-142.75;100.00;76456.13;5006707;28;20096;-67
2021/12/10 07:10:35;;;;;;;11.37;3.83;;;;;;;-142.75;100.00;76456.13;4999855;28;20401;-66
2021/12/10 07:13:03;;;;;;;11.23;2.60;;;;;;;-142.75;100.00;76456.13;4986787;28;20038;-66
2021/12/10 07:15:30;;;;;;;5.33;2.10;;;;;;;-142.75;100.00;76448.25;4986590;28;20139;-65
2021/12/10 07:17:55;;;;;;;7.53;2.47;;;;;;;-142.75;100.00;76456.13;4986782;28;20491;-66
2021/12/10 07:20:23;;;;;;;7.40;2.08;;;;;;;-142.75;100.00;76464.00;4986165;28;20030;-67
2021/12/10 07:22:50;;;;;;;15.03;3.23;;;;;;;-142.75;100.00;76467.94;4986961;28;20414;-66
2021/12/10 07:25:16;;;;;;;10.60;2.63;;;;;;;-142.75;100.00;76465.97;4986476;28;20030;-66
2021/12/10 07:27:42;;;;;;;7.80;2.20;;;;;;;-142.75;100.00;76471.88;4986547;28;20070;-66
2021/12/10 07:30:08;;;;;;;9.45;2.72;;;;;;;-142.75;100.00;76475.81;4985820;28;20077;-66
2021/12/10 07:32:35;;;;;;;12.95;2.35;;;;;;;-142.75;100.00;76487.63;4986406;28;20031;-66
2021/12/10 07:35:03;;;;;;;6.77;2.70;;;;;;;-142.75;100.00;76485.66;4989501;28;20480;-66
2021/12/10 07:37:28;;;;;;;9.37;2.50;;;;;;;-142.75;100.00;76495.50;4989841;28;20151;-66
2021/12/10 07:39:53;;;;;;;5.90;2.47;;;;;;;-142.75;100.00;76501.41;4989117;28;20032;-64
2021/12/10 07:42:19;;;;;;;11.40;2.72;;;;;;;-142.75;100.00;76495.50;4990101;28;20018;-67
2021/12/10 07:44:44;;;;;;;7.60;2.55;;;;;;;-142.75;100.00;76511.25;4989625;28;20030;-67
2021/12/10 07:47:12;;;;;;;10.57;2.63;;;;;;;-142.75;100.00;76511.25;4989621;28;20026;-66
2021/12/10 07:49:39;;;;;;;9.17;2.93;;;;;;;-142.75;100.00;76509.28;4987521;28;20079;-64
2021/12/10 07:52:15;;;;;;;9.03;3.00;;;;;;;-142.75;100.00;76505.34;4989430;28;20022;-66
2021/12/10 07:54:43;;;;;;;15.43;3.73;;;;;;;-142.75;100.00;76515.19;4989658;28;20069;-66
2021/12/10 07:57:09;;;;;;;8.93;3.07;;;;;;;-142.75;100.00;76519.13;4988221;28;20025;-66
2021/12/10 07:59:35;;;;;;;9.98;3.63;;;;;;;-142.75;100.00;76503.38;4986522;28;20022;-66
2021/12/10 08:02:01;;;;;;;11.95;4.25;;;;;;;-142.75;100.00;76501.41;4987482;28;20070;-67
2021/12/10 08:04:27;;;;;;;11.93;2.87;;;;;;;-142.75;100.00;76491.56;4995837;28;20033;-66
2021/12/10 08:06:52;;;;;;;9.65;3.28;;;;;;;-142.75;100.00;76491.56;5007533;28;20018;-64
2021/12/10 08:09:17;;;;;;;10.63;3.28;;;;;;;-142.75;100.00;76481.72;5007812;28;20414;-66
2021/12/10 08:11:42;;;;;;;12.20;4.13;;;;;;;-142.75;100.00;76483.69;5007990;28;20046;-67
2021/12/10 08:14:08;;;;;;;12.23;2.72;;;;;;;-142.75;100.00;76477.78;5007476;28;20014;-67
2021/12/10 08:16:33;;;;;;;8.52;2.60;;;;;;;-142.75;100.00;76471.88;5008909;28;20029;-67
2021/12/10 08:18:59;;;;;;;9.38;3.20;;;;;;;-142.75;100.00;76473.84;5008576;28;20112;-69
2021/12/10 08:21:24;;;;;;;7.47;3.13;;;;;;;-142.75;100.00;76471.88;4999852;28;20075;-66
2021/12/10 08:23:52;;;;;;;16.20;4.07;;;;;;;-142.75;100.00;76467.94;4991841;28;20038;-69
2021/12/10 08:26:17;;;;;;;8.33;2.90;;;;;;;-142.75;100.00;76460.06;4989239;28;20083;-68
2021/12/10 08:28:43;;;;;;;8.13;2.60;;;;;;;-142.75;100.00;76456.13;4988929;28;20026;-68
2021/12/10 08:31:09;;;;;;;8.85;3.88;;;;;;;-142.75;100.00;76460.06;4987086;28;20031;-67
2021/12/10 08:33:35;;;;;;;10.83;2.97;;;;;;;-142.75;100.00;76462.03;5002742;28;20022;-68
2021/12/10 08:36:06;;;;;;;9.10;2.78;;;;;;;-142.75;100.00;76454.16;5005801;28;20041;-67
2021/12/10 08:38:32;;;;;;;7.57;2.73;;;;;;;-142.75;100.00;76473.84;5007560;28;20145;-66
2021/12/10 08:41:03;;;;;;;9.63;3.50;;;;;;;-142.75;100.00;76467.94;5005422;28;20439;-66
2021/12/10 08:43:30;;;;;;;7.47;2.57;;;;;;;-142.75;100.00;76491.56;5007040;28;20082;-67
2021/12/10 08:45:56;;;;;;;11.50;3.10;;;;;;;-142.75;100.00;76491.56;5006398;28;20551;-66
2021/12/10 08:48:25;;;;;;;9.20;2.87;;;;;;;-142.75;100.00;76481.72;5005763;28;20498;-67
2021/12/10 08:50:51;;;;;;;7.00;3.10;;;;;;;-142.75;100.00;76475.81;4990303;28;20480;-67
2021/12/10 08:53:16;;;;;;;;;;;;;;;-142.75;100.00;76477.78;4987247;28;20019;-66
2021/12/10 08:55:47;;;;;;;11.67;2.83;;;;;;;-142.75;100.00;76483.69;4987617;28;20243;-68
2021/12/10 08:58:13;;;;;;;10.17;3.57;;;;;;;-142.75;100.00;76473.84;4987680;28;20503;-67
2021/12/10 09:00:42;;;;;;;9.23;3.10;;;;;;;-142.75;100.00;76477.78;4994540;28;20033;-66
2021/12/10 09:03:08;;;;;;;10.80;3.50;;;;;;;-142.75;100.00;76471.88;5006937;28;20448;-66
2021/12/10 09:05:33;;;;;;;9.25;3.05;;;;;;;-142.75;100.00;76479.75;5006972;28;20068;-65
2021/12/10 09:07:59;;;;;;;12.38;4.70;;;;;;;-142.75;100.00;76487.63;4994762;28;20022;-66
2021/12/10 09:10:33;;;;;;;13.57;4.47;;;;;;;-142.75;100.00;76469.91;4986766;28;20502;-66
2021/12/10 09:13:00;;;;;;;11.77;3.70;;;;;;;-142.75;100.00;76477.78;4986224;28;20038;-67
2021/12/10 09:15:27;;;;;;;14.47;3.83;;;;;;;-142.75;100.00;76475.81;4986093;28;20030;-67
2021/12/10 09:17:57;;;;;;;13.17;4.43;;;;;;;-142.75;100.00;76479.75;4987346;28;20034;-67
2021/12/10 09:20:29;;;;;;;17.13;4.63;;;;;;;-142.75;100.00;76475.81;4994843;28;20122;-69
2021/12/10 09:22:54;;;;;;;9.27;3.60;;;;;;;-142.75;100.00;76475.81;5006852;28;20392;-68
2021/12/10 09:25:20;;;;;;;14.15;4.00;;;;;;;-142.75;100.00;76479.75;5007071;28;20036;-67
2021/12/10 09:27:46;;;;;;;10.93;4.30;;;;;;;-142.75;100.00;76483.69;5005669;28;20163;-67
2021/12/10 09:30:13;;;;;;;13.52;4.07;;;;;;;-142.75;100.00;76483.69;5005869;28;20451;-66
2021/12/10 09:32:39;;;;;;;11.37;3.77;;;;;;;-142.75;100.00;76489.59;5006805;28;20116;-66
2021/12/10 09:35:08;;;;;;;12.00;3.78;;;;;;;-142.75;100.00;76487.63;4997529;28;20113;-67
2021/12/10 09:37:36;;;;;;;9.60;3.47;;;;;;;-142.75;100.00;76489.59;4986984;28;20033;-67
2021/12/10 09:40:06;;;;;;;12.43;4.20;;;;;;;-142.75;100.00;76499.44;4995809;28;20045;-68
2021/12/10 09:42:32;;;;;;;19.33;8.70;;;;;;;-142.75;100.00;76511.25;5004254;28;20037;-67
2021/12/10 09:44:57;;;;;;;11.23;4.80;;;;;;;-142.75;100.00;76511.25;5003538;28;20022;-68
2021/12/10 09:47:23;;;;;;;17.85;4.00;;;;;;;-142.75;100.00;76519.13;5002901;28;20026;-68
2021/12/10 09:49:52;;;;;;;12.82;3.50;;;;;;;-142.75;100.00;76511.25;5004537;28;20113;-66
2021/12/10 09:52:21;;;;;;;14.07;4.17;;;;;;;-142.75;100.00;76511.25;4998670;28;20030;-68
2021/12/10 09:54:46;;;;;;;15.30;4.67;;;;;;;-142.75;100.00;76513.22;4988219;28;20109;-66
2021/12/10 09:57:22;;;;;;;18.85;5.15;;;;;;;-142.75;100.00;76511.25;4986904;28;20181;-66
2021/12/10 09:59:51;;;;;;;9.35;3.47;;;;;;;-142.75;100.00;76517.16;4988501;28;20026;-67
2021/12/10 10:02:18;;;;;;;9.07;3.77;;;;;;;-142.75;100.00;76521.09;5006559;28;20026;-66
2021/12/10 10:04:49;;;;;;;17.43;4.57;;;;;;;-142.75;100.00;76528.97;5006012;28;20499;-68
2021/12/10 10:07:18;;;;;;;13.10;5.07;;;;;;;-142.75;100.00;76527.00;5006212;28;20044;-67
2021/12/10 10:09:47;;;;;;;12.90;4.97;;;;;;;-142.75;100.00;76528.97;5005249;28;20060;-66
2021/12/10 10:12:21;;;;;;;15.07;5.43;;;;;;;-142.75;100.00;76523.06;5006006;28;20502;-66
2021/12/10 10:14:46;;;;;;;12.80;5.23;;;;;;;-142.75;100.00;76530.91;5000813;28;20061;-65
2021/12/10 10:17:12;;;;;;;12.85;4.60;;;;;;;-142.75;100.00;76509.28;4988568;28;20053;-66
2021/12/10 10:19:39;;;;;;;13.60;4.40;;;;;;;-142.75;100.00;76519.13;4992129;28;20026;-67
2021/12/10 10:22:10;;;;;;;15.17;3.90;;;;;;;-142.75;100.00;76521.09;4986261;28;20162;-67
2021/12/10 10:24:36;;;;;;;18.67;6.83;;;;;;;-142.75;100.00;76507.31;4988179;28;20030;-66
2021/12/10 10:27:07;;;;;;;11.25;4.85;;;;;;;-142.75;100.00;76511.25;5004684;28;20045;-67
2021/12/10 10:29:36;;;;;;;15.50;5.23;;;;;;;-142.75;100.00;76495.50;4985771;28;20608;-66
2021/12/10 10:32:10;;;;;;;11.90;3.97;;;;;;;-142.75;100.00;76499.44;4998100;28;20033;-67
2021/12/10 10:34:39;;;;;;;14.43;5.93;;;;;;;-142.75;100.00;76499.44;4983958;28;20029;-67
2021/12/10 10:37:05;;;;;;;14.70;6.43;;;;;;;-142.75;100.00;76493.53;4986290;28;20026;-66
2021/12/10 10:39:33;;;;;;;18.08;5.72;;;;;;;-142.75;100.00;76481.72;4987400;28;20026;-66
2021/12/10 10:42:00;;;;;;;16.03;5.77;;;;;;;-142.75;100.00;76503.38;5005169;28;20113;-66
2021/12/10 10:44:26;;;;;;;10.63;4.57;;;;;;;-142.75;100.00;76489.59;4998202;28;20030;-67
2021/12/10 10:46:56;;;;;;;20.23;4.78;;;;;;;-142.75;100.00;76501.41;4990204;28;20153;-66
2021/12/10 10:49:39;;;;;;;12.30;4.67;;;;;;;-142.75;100.00;76495.50;5004251;28;20022;-66
2021/12/10 10:52:22;;;;;;;10.03;4.37;;;;;;;-142.75;100.00;76501.41;5005617;28;20029;-66
2021/12/10 10:54:50;;;;;;;9.77;4.50;;;;;;;-142.75;100.00;76503.38;5002735;28;20034;-66
2021/12/10 10:57:25;;;;;;;15.30;4.50;;;;;;;-142.75;100.00;76495.50;5005787;28;20061;-67
2021/12/10 10:59:56;;;;;;;15.10;4.80;;;;;;;-142.75;100.00;76495.50;4994476;28;20028;-66
2021/12/10 11:02:23;;;;;;;14.63;6.50;;;;;;;-142.75;100.00;76491.56;5004071;28;20108;-66
2021/12/10 11:04:52;;;;;;;15.73;5.97;;;;;;;-142.75;100.00;76491.56;4984421;28;20033;-66
2021/12/10 11:07:27;;;;;;;12.43;5.73;;;;;;;-142.75;100.00;76479.75;4986527;28;20018;-66
2021/12/10 11:09:59;;;;;;;13.90;4.93;;;;;;;-142.75;100.00;76481.72;4988500;28;20026;-67
2021/12/10 11:12:30;;;;;;;18.67;6.20;;;;;;;-142.75;100.00;76475.81;4989352;28;20034;-66
2021/12/10 11:14:58;;;;;;;12.43;6.20;;;;;;;-142.75;100.00;76467.94;4987949;28;20400;-67